createdAt,value
2018-07-07T00:00:12.993Z,3.17
2018-07-07T00:05:16.187Z,3.30
2018-07-07T00:10:19.269Z,3.30
2018-07-07T00:15:22.509Z,4.33
2018-07-07T00:20:25.536Z,4.93
2018-07-07T00:25:28.636Z,5.67
2018-07-07T00:30:31.696Z,3.67
2018-07-07T00:35:34.817Z,3.20
2018-07-07T00:40:37.918Z,4.63
2018-07-07T00:45:41.115Z,3.00
2018-07-07T00:50:44.129Z,3.30
2018-07-07T00:55:47.226Z,2.43
2018-07-07T01:00:51.433Z,5.00
2018-07-07T01:05:54.785Z,4.07
2018-07-07T01:10:57.794Z,5.17
2018-07-07T01:16:00.865Z,2.67
2018-07-07T01:21:04.006Z,3.97
2018-07-07T01:26:07.434Z,2.77
2018-07-07T01:31:10.626Z,2.50
2018-07-07T01:36:13.735Z,4.20
2018-07-07T01:41:16.843Z,2.83
2018-07-07T01:46:19.933Z,2.20
2018-07-07T01:51:23.042Z,3.27
2018-07-07T01:56:26.155Z,2.30
2018-07-07T02:01:29.222Z,3.13
2018-07-07T02:06:32.105Z,3.13
2018-07-07T02:11:35.974Z,2.93
2018-07-07T02:16:38.977Z,2.97
2018-07-07T02:21:42.262Z,2.40
2018-07-07T02:26:45.162Z,3.13
2018-07-07T02:31:48.061Z,4.07
2018-07-07T02:36:50.957Z,2.73
2018-07-07T02:41:54.102Z,3.13
2018-07-07T02:46:57.213Z,2.90
2018-07-07T02:52:00.356Z,4.77
2018-07-07T02:57:03.362Z,4.73
2018-07-07T03:02:06.584Z,3.67
2018-07-07T03:07:09.685Z,2.40
2018-07-07T03:12:12.752Z,4.00
2018-07-07T03:17:15.865Z,4.43
2018-07-07T03:22:18.950Z,2.77
2018-07-07T03:27:22.088Z,3.87
2018-07-07T03:32:25.188Z,2.73
2018-07-07T03:37:28.274Z,4.33
2018-07-07T03:42:31.377Z,3.97
2018-07-07T03:47:34.493Z,3.77
2018-07-07T03:52:37.590Z,3.97
2018-07-07T03:57:40.689Z,2.97
2018-07-07T04:02:43.843Z,5.43
2018-07-07T04:07:47.313Z,2.77
2018-07-07T04:12:50.445Z,4.07
2018-07-07T04:17:53.547Z,3.33
2018-07-07T04:22:56.828Z,8.97
2018-07-07T04:27:59.963Z,6.53
2018-07-07T04:33:03.078Z,3.97
2018-07-07T04:38:06.339Z,4.37
2018-07-07T04:43:09.463Z,4.53
2018-07-07T04:48:13.801Z,5.93
2018-07-07T04:53:16.901Z,5.33
2018-07-07T04:58:19.996Z,5.00
2018-07-07T05:03:23.145Z,2.70
2018-07-07T05:08:26.280Z,4.47
2018-07-07T05:13:29.377Z,4.53
2018-07-07T05:18:32.514Z,3.50
2018-07-07T05:23:35.527Z,7.93
2018-07-07T05:28:38.657Z,5.17
2018-07-07T05:33:41.749Z,5.03
2018-07-07T05:38:44.879Z,5.17
2018-07-07T05:43:48.001Z,3.73
2018-07-07T05:48:51.481Z,3.77
2018-07-07T05:53:54.663Z,5.30
2018-07-07T05:58:57.706Z,8.60
2018-07-07T06:04:00.798Z,4.20
2018-07-07T06:09:04.363Z,7.83
2018-07-07T06:14:07.416Z,6.73
2018-07-07T06:19:10.682Z,5.27
2018-07-07T06:24:14.017Z,4.67
2018-07-07T06:29:17.194Z,8.07
2018-07-07T06:34:20.269Z,4.23
2018-07-07T06:39:23.454Z,6.10
2018-07-07T06:44:26.506Z,6.73
2018-07-07T06:49:29.577Z,5.63
2018-07-07T06:54:32.701Z,8.00
2018-07-07T06:59:35.828Z,6.67
2018-07-07T07:04:38.885Z,9.33
2018-07-07T07:09:42.014Z,9.60
2018-07-07T07:14:45.130Z,7.53
2018-07-07T07:19:48.248Z,7.73
2018-07-07T07:24:51.281Z,8.97
2018-07-07T07:29:54.437Z,5.30
2018-07-07T07:34:57.698Z,7.97
2018-07-07T07:40:00.855Z,9.90
2018-07-07T07:45:03.982Z,10.07
2018-07-07T07:50:07.070Z,7.57
2018-07-07T07:55:10.156Z,6.83
2018-07-07T08:00:13.256Z,8.47
2018-07-07T08:05:16.366Z,3.77
2018-07-07T08:10:19.478Z,6.03
2018-07-07T08:15:22.582Z,5.40
2018-07-07T08:20:25.705Z,7.07
2018-07-07T08:25:28.869Z,9.20
2018-07-07T08:30:31.930Z,8.03
2018-07-07T08:35:35.017Z,3.80
2018-07-07T08:40:38.090Z,6.87
2018-07-07T08:45:41.730Z,6.90
2018-07-07T08:50:45.405Z,5.63
2018-07-07T08:55:48.453Z,10.33
2018-07-07T09:00:51.552Z,7.73
2018-07-07T09:05:54.685Z,3.73
2018-07-07T09:10:57.790Z,4.33
2018-07-07T09:16:00.866Z,5.47
2018-07-07T09:21:03.997Z,4.83
2018-07-07T09:26:07.084Z,4.67
2018-07-07T09:31:10.436Z,5.63
2018-07-07T09:36:13.468Z,3.60
2018-07-07T09:41:16.582Z,4.50
2018-07-07T09:46:19.478Z,3.17
2018-07-07T09:51:22.374Z,7.17
2018-07-07T09:56:25.458Z,3.37
2018-07-07T10:01:28.437Z,2.63
2018-07-07T10:06:31.545Z,7.10
2018-07-07T10:11:34.629Z,5.00
2018-07-07T10:16:37.796Z,3.07
2018-07-07T10:21:40.833Z,4.90
2018-07-07T10:26:44.015Z,3.23
2018-07-07T10:31:47.043Z,5.93
2018-07-07T10:36:50.167Z,3.07
2018-07-07T10:41:53.413Z,4.13
2018-07-07T10:46:56.423Z,1.73
2018-07-07T10:51:59.449Z,1.80
2018-07-07T10:57:02.600Z,1.80
2018-07-07T11:02:05.729Z,4.90
2018-07-07T11:07:08.786Z,4.93
2018-07-07T11:12:12.080Z,3.70
2018-07-07T11:17:14.995Z,2.70
2018-07-07T11:22:18.097Z,2.67
2018-07-07T11:27:21.204Z,4.87
2018-07-07T11:32:24.317Z,3.67
2018-07-07T11:37:27.486Z,3.37
2018-07-07T11:42:30.556Z,2.50
2018-07-07T11:47:33.641Z,4.70
2018-07-07T11:52:36.726Z,7.10
2018-07-07T11:57:39.766Z,3.10
2018-07-07T12:02:42.957Z,3.13
2018-07-07T12:07:46.049Z,2.73
2018-07-07T12:12:49.195Z,3.60
2018-07-07T12:17:52.197Z,3.73
2018-07-07T12:22:55.218Z,4.47
2018-07-07T12:27:58.363Z,4.50
2018-07-07T12:33:01.473Z,2.67
2018-07-07T12:38:04.525Z,1.93
2018-07-07T12:43:08.413Z,2.20
2018-07-07T12:48:11.504Z,6.80
2018-07-07T12:53:14.547Z,4.37
2018-07-07T12:58:17.733Z,3.77
2018-07-07T13:03:20.841Z,5.80
2018-07-07T13:08:23.925Z,4.43
2018-07-07T13:13:27.025Z,6.07
2018-07-07T13:18:30.169Z,4.73
2018-07-07T13:23:33.278Z,3.60
2018-07-07T13:28:36.285Z,1.90
2018-07-07T13:33:39.477Z,3.30
2018-07-07T13:38:42.494Z,4.07
2018-07-07T13:43:45.744Z,3.47
2018-07-07T13:48:48.777Z,4.33
2018-07-07T13:53:51.897Z,3.83
2018-07-07T13:58:55.004Z,2.67
2018-07-07T14:03:58.100Z,2.40
2018-07-07T14:09:01.241Z,3.77
2018-07-07T14:14:04.307Z,4.63
2018-07-07T14:19:07.377Z,4.23
2018-07-07T14:24:10.526Z,2.97
2018-07-07T14:29:13.639Z,5.30
2018-07-07T14:34:16.717Z,6.47
2018-07-07T14:39:19.832Z,3.70
2018-07-07T14:44:22.947Z,4.60
2018-07-07T14:49:26.052Z,2.70
2018-07-07T14:54:29.224Z,4.57
2018-07-07T14:59:32.238Z,5.00
2018-07-07T15:04:35.345Z,20.37
2018-07-07T15:09:38.503Z,21.87
2018-07-07T15:14:41.590Z,39.30
2018-07-07T15:19:44.789Z,23.53
2018-07-07T15:24:47.818Z,26.70
2018-07-07T15:29:50.903Z,32.20
2018-07-07T15:34:54.017Z,25.63
2018-07-07T15:39:57.024Z,20.37
2018-07-07T15:45:00.208Z,10.83
2018-07-07T15:50:03.957Z,5.90
2018-07-07T15:55:07.084Z,5.60
2018-07-07T16:00:10.923Z,4.93
2018-07-07T16:05:13.982Z,7.40
2018-07-07T16:10:16.997Z,5.97
2018-07-07T16:15:20.104Z,4.37
2018-07-07T16:20:23.206Z,3.07
2018-07-07T16:25:26.290Z,5.27
2018-07-07T16:30:29.409Z,4.47
2018-07-07T16:35:32.513Z,4.10
2018-07-07T16:40:35.602Z,4.97
2018-07-07T16:45:38.753Z,5.23
2018-07-07T16:50:41.768Z,3.63
2018-07-07T16:55:46.381Z,5.33
2018-07-07T17:00:49.460Z,6.40
2018-07-07T17:05:52.601Z,7.20
2018-07-07T17:10:55.701Z,5.07
2018-07-07T17:15:58.812Z,18.23
2018-07-07T17:21:01.979Z,7.03
2018-07-07T17:26:06.061Z,5.30
2018-07-07T17:31:09.133Z,5.20
2018-07-07T17:36:12.254Z,6.00
2018-07-07T17:41:15.462Z,24.53
2018-07-07T17:46:19.094Z,11.40
2018-07-07T17:51:22.127Z,11.80
2018-07-07T17:56:25.236Z,7.37
2018-07-07T18:01:28.348Z,6.70
2018-07-07T18:06:31.486Z,6.43
2018-07-07T18:11:34.605Z,4.90
2018-07-07T18:16:37.751Z,10.10
2018-07-07T18:35:36.165Z,4.30
2018-07-07T18:40:39.665Z,6.40
2018-07-07T18:45:42.806Z,13.60
2018-07-07T18:50:45.915Z,8.43
2018-07-07T18:55:48.989Z,6.20
2018-07-07T19:00:52.128Z,4.07
2018-07-07T19:05:55.253Z,4.67
2018-07-07T19:10:58.377Z,4.73
2018-07-07T19:16:01.458Z,5.93
2018-07-07T19:21:09.995Z,6.50
2018-07-07T19:26:18.638Z,7.43
2018-07-07T19:31:21.592Z,3.53
2018-07-07T19:36:30.198Z,4.97
2018-07-07T19:41:33.381Z,5.13
2018-07-07T19:46:36.473Z,4.17
2018-07-07T19:51:39.563Z,2.77
2018-07-07T19:56:43.099Z,3.73
2018-07-07T20:01:46.198Z,6.93
2018-07-07T20:06:49.381Z,5.50
2018-07-07T20:11:52.443Z,2.87
2018-07-07T20:17:02.218Z,4.10
2018-07-07T20:22:05.407Z,4.13
2018-07-07T20:27:14.524Z,5.27
2018-07-07T20:32:22.914Z,3.30
2018-07-07T20:37:25.962Z,4.60
2018-07-07T20:42:29.070Z,4.90
2018-07-07T20:47:32.145Z,3.90
2018-07-07T20:52:35.253Z,3.90
2018-07-07T20:57:38.365Z,4.47
2018-07-07T21:02:41.716Z,2.53
2018-07-07T21:07:45.797Z,5.17
2018-07-07T21:12:48.976Z,11.30
2018-07-07T21:17:52.039Z,5.63
2018-07-07T21:22:55.117Z,6.03
2018-07-07T21:27:58.232Z,2.87
2018-07-07T21:33:01.378Z,4.47
2018-07-07T21:38:04.557Z,4.27
2018-07-07T21:43:07.742Z,5.57
2018-07-07T21:48:10.881Z,5.43
2018-07-07T21:53:14.004Z,4.37
2018-07-07T21:58:22.637Z,4.50
2018-07-07T22:03:31.078Z,3.37
2018-07-07T22:08:35.014Z,4.83
2018-07-07T22:13:38.069Z,4.30
2018-07-07T22:18:41.177Z,5.30
2018-07-07T22:23:44.309Z,3.97
2018-07-07T22:28:47.402Z,3.77
2018-07-07T22:33:50.496Z,6.80
2018-07-07T22:38:55.462Z,3.83
2018-07-07T22:43:58.564Z,5.17
2018-07-07T22:49:01.639Z,4.43
2018-07-07T22:54:04.589Z,5.40
2018-07-07T22:59:07.929Z,4.30
2018-07-07T23:04:10.970Z,4.27
2018-07-07T23:09:14.968Z,4.57
2018-07-07T23:14:18.066Z,3.90
2018-07-07T23:19:21.102Z,3.50
2018-07-07T23:24:24.337Z,4.90
2018-07-07T23:29:27.266Z,3.57
2018-07-07T23:34:30.437Z,4.60
2018-07-07T23:39:33.537Z,5.93
2018-07-07T23:44:36.633Z,4.80
2018-07-07T23:49:39.749Z,4.57
2018-07-07T23:54:42.870Z,7.37
2018-07-07T23:59:46.020Z,4.63
